sensor_id;sensor_type;location;lat;lon;timestamp;P1;durP1;ratioP1;P2;durP2;ratioP2
54745;SDS011;40640;48.130;11.356;2022-10-31T00:02:18;19.13;;;5.60;;
54745;SDS011;40640;48.130;11.356;2022-10-31T00:06:21;14.98;;;6.05;;
54745;SDS011;40640;48.130;11.356;2022-10-31T00:10:25;14.73;;;5.90;;
54745;SDS011;40640;48.130;11.356;2022-10-31T00:14:28;18.17;;;5.22;;
54745;SDS011;40640;48.130;11.356;2022-10-31T00:18:31;21.50;;;5.43;;
54745;SDS011;40640;48.130;11.356;2022-10-31T00:22:33;18.98;;;5.13;;
54745;SDS011;40640;48.130;11.356;2022-10-31T00:26:37;14.65;;;5.63;;
54745;SDS011;40640;48.130;11.356;2022-10-31T00:30:40;14.50;;;5.10;;
54745;SDS011;40640;48.130;11.356;2022-10-31T00:34:43;15.63;;;5.32;;
54745;SDS011;40640;48.130;11.356;2022-10-31T00:38:46;17.65;;;5.30;;
54745;SDS011;40640;48.130;11.356;2022-10-31T00:42:51;21.00;;;5.35;;
54745;SDS011;40640;48.130;11.356;2022-10-31T00:46:53;15.60;;;4.65;;
54745;SDS011;40640;48.130;11.356;2022-10-31T00:50:56;19.13;;;6.50;;
54745;SDS011;40640;48.130;11.356;2022-10-31T00:54:59;18.48;;;6.22;;
54745;SDS011;40640;48.130;11.356;2022-10-31T00:59:03;18.15;;;5.82;;
54745;SDS011;40640;48.130;11.356;2022-10-31T01:03:06;25.70;;;5.50;;
54745;SDS011;40640;48.130;11.356;2022-10-31T01:07:13;18.52;;;5.43;;
54745;SDS011;40640;48.130;11.356;2022-10-31T01:11:19;13.27;;;5.45;;
54745;SDS011;40640;48.130;11.356;2022-10-31T01:15:24;14.82;;;5.18;;
54745;SDS011;40640;48.130;11.356;2022-10-31T01:19:27;16.50;;;5.47;;
54745;SDS011;40640;48.130;11.356;2022-10-31T01:23:31;13.68;;;6.05;;
54745;SDS011;40640;48.130;11.356;2022-10-31T01:27:34;26.23;;;6.47;;
54745;SDS011;40640;48.130;11.356;2022-10-31T01:31:38;14.85;;;5.70;;
54745;SDS011;40640;48.130;11.356;2022-10-31T01:35:42;20.03;;;6.50;;
54745;SDS011;40640;48.130;11.356;2022-10-31T01:39:45;20.95;;;7.22;;
54745;SDS011;40640;48.130;11.356;2022-10-31T01:43:51;29.33;;;6.72;;
54745;SDS011;40640;48.130;11.356;2022-10-31T01:47:56;18.30;;;6.25;;
54745;SDS011;40640;48.130;11.356;2022-10-31T01:52:00;20.80;;;7.07;;
54745;SDS011;40640;48.130;11.356;2022-10-31T01:56:06;17.65;;;5.57;;
54745;SDS011;40640;48.130;11.356;2022-10-31T02:00:12;17.02;;;6.00;;
54745;SDS011;40640;48.130;11.356;2022-10-31T02:04:17;24.40;;;5.53;;
54745;SDS011;40640;48.130;11.356;2022-10-31T02:08:22;13.13;;;5.23;;
54745;SDS011;40640;48.130;11.356;2022-10-31T02:12:30;15.13;;;6.25;;
54745;SDS011;40640;48.130;11.356;2022-10-31T02:16:34;18.58;;;5.88;;
54745;SDS011;40640;48.130;11.356;2022-10-31T02:20:41;17.67;;;5.38;;
54745;SDS011;40640;48.130;11.356;2022-10-31T02:24:57;15.93;;;6.20;;
54745;SDS011;40640;48.130;11.356;2022-10-31T02:29:24;17.85;;;5.47;;
54745;SDS011;40640;48.130;11.356;2022-10-31T02:33:42;10.10;;;4.38;;
54745;SDS011;40640;48.130;11.356;2022-10-31T02:37:51;19.08;;;5.15;;
54745;SDS011;40640;48.130;11.356;2022-10-31T02:42:01;16.95;;;5.20;;
54745;SDS011;40640;48.130;11.356;2022-10-31T02:46:11;19.77;;;6.75;;
54745;SDS011;40640;48.130;11.356;2022-10-31T02:50:19;20.40;;;6.63;;
54745;SDS011;40640;48.130;11.356;2022-10-31T02:54:27;17.92;;;5.03;;
54745;SDS011;40640;48.130;11.356;2022-10-31T02:58:31;18.02;;;4.85;;
54745;SDS011;40640;48.130;11.356;2022-10-31T03:02:47;11.07;;;5.47;;
54745;SDS011;40640;48.130;11.356;2022-10-31T03:07:07;11.60;;;4.78;;
54745;SDS011;40640;48.130;11.356;2022-10-31T03:11:13;12.07;;;5.13;;
54745;SDS011;40640;48.130;11.356;2022-10-31T03:15:18;11.98;;;4.38;;
54745;SDS011;40640;48.130;11.356;2022-10-31T03:19:25;16.60;;;4.82;;
54745;SDS011;40640;48.130;11.356;2022-10-31T03:23:32;11.20;;;4.75;;
54745;SDS011;40640;48.130;11.356;2022-10-31T03:27:37;9.13;;;4.20;;
54745;SDS011;40640;48.130;11.356;2022-10-31T03:31:46;14.90;;;3.97;;
54745;SDS011;40640;48.130;11.356;2022-10-31T03:35:52;13.95;;;5.30;;
54745;SDS011;40640;48.130;11.356;2022-10-31T03:39:59;14.50;;;4.60;;
54745;SDS011;40640;48.130;11.356;2022-10-31T03:44:06;9.63;;;3.90;;
54745;SDS011;40640;48.130;11.356;2022-10-31T03:48:14;12.77;;;4.20;;
54745;SDS011;40640;48.130;11.356;2022-10-31T03:52:22;12.63;;;4.93;;
54745;SDS011;40640;48.130;11.356;2022-10-31T03:56:32;11.93;;;5.35;;
54745;SDS011;40640;48.130;11.356;2022-10-31T04:00:37;16.65;;;4.50;;
54745;SDS011;40640;48.130;11.356;2022-10-31T04:04:43;15.32;;;4.70;;
54745;SDS011;40640;48.130;11.356;2022-10-31T04:08:48;15.60;;;5.70;;
54745;SDS011;40640;48.130;11.356;2022-10-31T04:12:57;14.57;;;4.45;;
54745;SDS011;40640;48.130;11.356;2022-10-31T04:17:11;10.23;;;5.20;;
54745;SDS011;40640;48.130;11.356;2022-10-31T04:21:17;13.18;;;5.32;;
54745;SDS011;40640;48.130;11.356;2022-10-31T04:25:19;17.85;;;5.18;;
54745;SDS011;40640;48.130;11.356;2022-10-31T04:29:24;14.23;;;5.07;;
54745;SDS011;40640;48.130;11.356;2022-10-31T04:33:27;10.30;;;4.35;;
54745;SDS011;40640;48.130;11.356;2022-10-31T04:37:29;16.85;;;5.50;;
54745;SDS011;40640;48.130;11.356;2022-10-31T04:41:33;11.13;;;5.20;;
54745;SDS011;40640;48.130;11.356;2022-10-31T04:45:40;16.75;;;7.88;;
54745;SDS011;40640;48.130;11.356;2022-10-31T04:49:43;16.52;;;5.50;;
54745;SDS011;40640;48.130;11.356;2022-10-31T04:53:47;19.50;;;6.05;;
54745;SDS011;40640;48.130;11.356;2022-10-31T04:58:12;11.80;;;5.55;;
54745;SDS011;40640;48.130;11.356;2022-10-31T05:02:20;10.98;;;4.80;;
54745;SDS011;40640;48.130;11.356;2022-10-31T05:06:28;15.68;;;5.00;;
54745;SDS011;40640;48.130;11.356;2022-10-31T05:10:31;14.32;;;4.65;;
54745;SDS011;40640;48.130;11.356;2022-10-31T05:14:35;15.70;;;5.75;;
54745;SDS011;40640;48.130;11.356;2022-10-31T05:18:58;20.10;;;4.63;;
54745;SDS011;40640;48.130;11.356;2022-10-31T05:23:01;12.75;;;4.95;;
54745;SDS011;40640;48.130;11.356;2022-10-31T05:27:04;15.63;;;5.40;;
54745;SDS011;40640;48.130;11.356;2022-10-31T05:31:07;15.57;;;5.50;;
54745;SDS011;40640;48.130;11.356;2022-10-31T05:35:12;14.43;;;5.82;;
54745;SDS011;40640;48.130;11.356;2022-10-31T05:39:36;14.45;;;5.18;;
54745;SDS011;40640;48.130;11.356;2022-10-31T05:43:46;14.30;;;5.57;;
54745;SDS011;40640;48.130;11.356;2022-10-31T05:47:52;11.30;;;4.40;;
54745;SDS011;40640;48.130;11.356;2022-10-31T05:52:28;12.93;;;5.32;;
54745;SDS011;40640;48.130;11.356;2022-10-31T05:56:41;19.95;;;5.38;;
54745;SDS011;40640;48.130;11.356;2022-10-31T06:00:44;13.38;;;4.32;;
54745;SDS011;40640;48.130;11.356;2022-10-31T06:04:47;13.18;;;4.70;;
54745;SDS011;40640;48.130;11.356;2022-10-31T06:08:52;13.25;;;5.25;;
54745;SDS011;40640;48.130;11.356;2022-10-31T06:12:56;14.23;;;4.07;;
54745;SDS011;40640;48.130;11.356;2022-10-31T06:17:10;11.55;;;5.07;;
54745;SDS011;40640;48.130;11.356;2022-10-31T06:21:22;11.55;;;4.10;;
54745;SDS011;40640;48.130;11.356;2022-10-31T06:25:26;9.82;;;4.70;;
54745;SDS011;40640;48.130;11.356;2022-10-31T06:29:30;14.77;;;5.03;;
54745;SDS011;40640;48.130;11.356;2022-10-31T06:33:40;11.45;;;4.30;;
54745;SDS011;40640;48.130;11.356;2022-10-31T06:37:50;12.07;;;4.05;;
54745;SDS011;40640;48.130;11.356;2022-10-31T06:42:11;12.60;;;4.57;;
54745;SDS011;40640;48.130;11.356;2022-10-31T06:46:14;14.50;;;4.18;;
54745;SDS011;40640;48.130;11.356;2022-10-31T06:50:24;12.80;;;3.75;;
54745;SDS011;40640;48.130;11.356;2022-10-31T06:54:27;14.65;;;5.65;;
54745;SDS011;40640;48.130;11.356;2022-10-31T06:58:31;21.40;;;7.47;;
54745;SDS011;40640;48.130;11.356;2022-10-31T07:02:37;15.27;;;6.78;;
54745;SDS011;40640;48.130;11.356;2022-10-31T07:06:40;17.55;;;8.20;;
54745;SDS011;40640;48.130;11.356;2022-10-31T07:10:43;18.65;;;7.05;;
54745;SDS011;40640;48.130;11.356;2022-10-31T07:14:55;17.63;;;5.82;;
54745;SDS011;40640;48.130;11.356;2022-10-31T07:18:58;15.50;;;5.40;;
54745;SDS011;40640;48.130;11.356;2022-10-31T07:23:02;18.70;;;5.70;;
54745;SDS011;40640;48.130;11.356;2022-10-31T07:27:06;16.52;;;6.03;;
54745;SDS011;40640;48.130;11.356;2022-10-31T07:31:11;15.05;;;5.03;;
54745;SDS011;40640;48.130;11.356;2022-10-31T07:35:14;22.77;;;11.52;;
54745;SDS011;40640;48.130;11.356;2022-10-31T07:39:21;18.20;;;6.57;;
54745;SDS011;40640;48.130;11.356;2022-10-31T07:43:24;11.40;;;5.35;;
54745;SDS011;40640;48.130;11.356;2022-10-31T07:47:54;15.25;;;5.80;;
54745;SDS011;40640;48.130;11.356;2022-10-31T07:52:19;23.63;;;6.45;;
54745;SDS011;40640;48.130;11.356;2022-10-31T07:56:41;18.23;;;5.32;;
54745;SDS011;40640;48.130;11.356;2022-10-31T08:00:44;11.90;;;4.95;;
54745;SDS011;40640;48.130;11.356;2022-10-31T08:04:54;13.52;;;4.97;;
54745;SDS011;40640;48.130;11.356;2022-10-31T08:09:01;16.48;;;4.93;;
54745;SDS011;40640;48.130;11.356;2022-10-31T08:13:06;14.20;;;5.88;;
54745;SDS011;40640;48.130;11.356;2022-10-31T08:17:13;10.63;;;6.10;;
54745;SDS011;40640;48.130;11.356;2022-10-31T08:21:27;16.05;;;6.32;;
54745;SDS011;40640;48.130;11.356;2022-10-31T08:25:31;16.98;;;5.72;;
54745;SDS011;40640;48.130;11.356;2022-10-31T08:29:39;19.88;;;7.35;;
54745;SDS011;40640;48.130;11.356;2022-10-31T08:33:42;23.58;;;8.40;;
54745;SDS011;40640;48.130;11.356;2022-10-31T08:37:52;18.80;;;8.45;;
54745;SDS011;40640;48.130;11.356;2022-10-31T08:41:59;17.58;;;7.75;;
54745;SDS011;40640;48.130;11.356;2022-10-31T08:46:02;17.52;;;8.30;;
54745;SDS011;40640;48.130;11.356;2022-10-31T08:50:06;22.15;;;8.35;;
54745;SDS011;40640;48.130;11.356;2022-10-31T08:54:10;19.13;;;7.65;;
54745;SDS011;40640;48.130;11.356;2022-10-31T08:58:28;21.15;;;7.95;;
54745;SDS011;40640;48.130;11.356;2022-10-31T09:02:35;14.10;;;7.72;;
54745;SDS011;40640;48.130;11.356;2022-10-31T09:06:39;27.45;;;8.85;;
54745;SDS011;40640;48.130;11.356;2022-10-31T09:10:57;17.15;;;6.88;;
54745;SDS011;40640;48.130;11.356;2022-10-31T09:15:36;22.88;;;7.45;;
54745;SDS011;40640;48.130;11.356;2022-10-31T09:20:07;18.70;;;7.05;;
54745;SDS011;40640;48.130;11.356;2022-10-31T09:24:10;20.63;;;6.90;;
54745;SDS011;40640;48.130;11.356;2022-10-31T09:28:17;17.63;;;6.68;;
54745;SDS011;40640;48.130;11.356;2022-10-31T09:32:21;14.68;;;5.43;;
54745;SDS011;40640;48.130;11.356;2022-10-31T09:36:24;13.45;;;4.95;;
54745;SDS011;40640;48.130;11.356;2022-10-31T09:40:31;15.88;;;4.88;;
54745;SDS011;40640;48.130;11.356;2022-10-31T09:44:42;10.65;;;4.45;;
54745;SDS011;40640;48.130;11.356;2022-10-31T09:49:16;16.95;;;4.13;;
54745;SDS011;40640;48.130;11.356;2022-10-31T09:53:32;8.68;;;3.67;;
54745;SDS011;40640;48.130;11.356;2022-10-31T09:57:41;10.43;;;4.22;;
54745;SDS011;40640;48.130;11.356;2022-10-31T10:01:46;11.75;;;3.60;;
54745;SDS011;40640;48.130;11.356;2022-10-31T10:05:54;16.92;;;3.75;;
54745;SDS011;40640;48.130;11.356;2022-10-31T10:10:27;14.18;;;4.13;;
54745;SDS011;40640;48.130;11.356;2022-10-31T10:15:02;12.63;;;3.75;;
54745;SDS011;40640;48.130;11.356;2022-10-31T10:19:24;10.20;;;3.80;;
54745;SDS011;40640;48.130;11.356;2022-10-31T10:23:38;20.52;;;3.53;;
54745;SDS011;40640;48.130;11.356;2022-10-31T10:27:52;20.90;;;4.00;;
54745;SDS011;40640;48.130;11.356;2022-10-31T10:32:09;13.68;;;4.40;;
54745;SDS011;40640;48.130;11.356;2022-10-31T10:36:32;15.18;;;3.83;;
54745;SDS011;40640;48.130;11.356;2022-10-31T10:40:40;13.77;;;2.97;;
54745;SDS011;40640;48.130;11.356;2022-10-31T10:44:43;10.07;;;3.30;;
54745;SDS011;40640;48.130;11.356;2022-10-31T10:49:09;11.85;;;3.28;;
54745;SDS011;40640;48.130;11.356;2022-10-31T10:53:37;9.27;;;3.15;;
54745;SDS011;40640;48.130;11.356;2022-10-31T10:58:01;13.35;;;3.25;;
54745;SDS011;40640;48.130;11.356;2022-10-31T11:02:13;12.43;;;4.50;;
54745;SDS011;40640;48.130;11.356;2022-10-31T11:06:19;11.95;;;4.07;;
54745;SDS011;40640;48.130;11.356;2022-10-31T11:10:28;11.75;;;3.63;;
54745;SDS011;40640;48.130;11.356;2022-10-31T11:14:31;15.30;;;3.50;;
54745;SDS011;40640;48.130;11.356;2022-10-31T11:18:39;10.23;;;3.35;;
54745;SDS011;40640;48.130;11.356;2022-10-31T11:26:49;16.48;;;3.30;;
54745;SDS011;40640;48.130;11.356;2022-10-31T11:30:53;10.98;;;2.83;;
54745;SDS011;40640;48.130;11.356;2022-10-31T11:34:58;9.23;;;2.92;;
54745;SDS011;40640;48.130;11.356;2022-10-31T11:39:04;8.02;;;3.05;;
54745;SDS011;40640;48.130;11.356;2022-10-31T11:43:17;14.20;;;3.47;;
54745;SDS011;40640;48.130;11.356;2022-10-31T11:47:22;14.35;;;3.60;;
54745;SDS011;40640;48.130;11.356;2022-10-31T11:51:28;10.73;;;3.55;;
54745;SDS011;40640;48.130;11.356;2022-10-31T11:55:37;13.80;;;3.97;;
54745;SDS011;40640;48.130;11.356;2022-10-31T11:59:50;13.32;;;3.47;;
54745;SDS011;40640;48.130;11.356;2022-10-31T12:03:54;12.90;;;3.97;;
54745;SDS011;40640;48.130;11.356;2022-10-31T12:08:04;9.63;;;2.70;;
54745;SDS011;40640;48.130;11.356;2022-10-31T12:12:11;12.27;;;3.80;;
54745;SDS011;40640;48.130;11.356;2022-10-31T12:16:28;12.05;;;3.92;;
54745;SDS011;40640;48.130;11.356;2022-10-31T12:20:38;12.80;;;3.47;;
54745;SDS011;40640;48.130;11.356;2022-10-31T12:29:28;12.25;;;3.47;;
54745;SDS011;40640;48.130;11.356;2022-10-31T12:33:47;14.45;;;3.10;;
54745;SDS011;40640;48.130;11.356;2022-10-31T12:38:12;7.97;;;2.88;;
54745;SDS011;40640;48.130;11.356;2022-10-31T12:42:29;8.68;;;2.75;;
54745;SDS011;40640;48.130;11.356;2022-10-31T12:46:50;9.50;;;2.85;;
54745;SDS011;40640;48.130;11.356;2022-10-31T12:51:10;12.65;;;2.72;;
54745;SDS011;40640;48.130;11.356;2022-10-31T12:55:23;8.05;;;2.70;;
54745;SDS011;40640;48.130;11.356;2022-10-31T12:59:39;10.70;;;3.15;;
54745;SDS011;40640;48.130;11.356;2022-10-31T13:03:46;13.23;;;3.15;;
54745;SDS011;40640;48.130;11.356;2022-10-31T13:08:01;16.60;;;3.53;;
54745;SDS011;40640;48.130;11.356;2022-10-31T13:12:08;8.70;;;2.67;;
54745;SDS011;40640;48.130;11.356;2022-10-31T13:16:14;6.70;;;2.78;;
54745;SDS011;40640;48.130;11.356;2022-10-31T13:20:22;9.70;;;2.50;;
54745;SDS011;40640;48.130;11.356;2022-10-31T13:24:30;10.90;;;2.90;;
54745;SDS011;40640;48.130;11.356;2022-10-31T13:28:39;12.10;;;2.95;;
54745;SDS011;40640;48.130;11.356;2022-10-31T13:32:48;12.73;;;3.25;;
54745;SDS011;40640;48.130;11.356;2022-10-31T13:36:58;13.02;;;3.30;;
54745;SDS011;40640;48.130;11.356;2022-10-31T13:41:10;16.10;;;3.42;;
54745;SDS011;40640;48.130;11.356;2022-10-31T13:45:20;17.30;;;3.30;;
54745;SDS011;40640;48.130;11.356;2022-10-31T13:49:25;13.70;;;3.60;;
54745;SDS011;40640;48.130;11.356;2022-10-31T13:58:02;22.17;;;3.55;;
54745;SDS011;40640;48.130;11.356;2022-10-31T14:06:16;8.80;;;3.22;;
54745;SDS011;40640;48.130;11.356;2022-10-31T14:10:24;13.55;;;3.40;;
54745;SDS011;40640;48.130;11.356;2022-10-31T14:14:31;17.15;;;4.05;;
54745;SDS011;40640;48.130;11.356;2022-10-31T14:18:39;15.95;;;3.58;;
54745;SDS011;40640;48.130;11.356;2022-10-31T14:22:45;17.25;;;3.40;;
54745;SDS011;40640;48.130;11.356;2022-10-31T14:26:52;11.43;;;3.15;;
54745;SDS011;40640;48.130;11.356;2022-10-31T14:30:58;11.88;;;3.10;;
54745;SDS011;40640;48.130;11.356;2022-10-31T14:35:01;15.90;;;3.63;;
54745;SDS011;40640;48.130;11.356;2022-10-31T14:39:06;13.82;;;3.42;;
54745;SDS011;40640;48.130;11.356;2022-10-31T14:43:26;11.85;;;3.20;;
54745;SDS011;40640;48.130;11.356;2022-10-31T14:47:42;13.32;;;3.60;;
54745;SDS011;40640;48.130;11.356;2022-10-31T14:51:53;9.75;;;4.28;;
54745;SDS011;40640;48.130;11.356;2022-10-31T14:55:57;10.88;;;3.30;;
54745;SDS011;40640;48.130;11.356;2022-10-31T15:00:08;19.42;;;3.75;;
54745;SDS011;40640;48.130;11.356;2022-10-31T15:04:19;16.92;;;3.70;;
54745;SDS011;40640;48.130;11.356;2022-10-31T15:08:30;10.77;;;3.92;;
54745;SDS011;40640;48.130;11.356;2022-10-31T15:12:36;13.68;;;4.25;;
54745;SDS011;40640;48.130;11.356;2022-10-31T15:16:40;15.43;;;4.47;;
54745;SDS011;40640;48.130;11.356;2022-10-31T15:20:46;16.48;;;3.78;;
54745;SDS011;40640;48.130;11.356;2022-10-31T15:24:50;15.82;;;3.72;;
54745;SDS011;40640;48.130;11.356;2022-10-31T15:28:57;17.65;;;4.63;;
54745;SDS011;40640;48.130;11.356;2022-10-31T15:33:14;22.03;;;4.20;;
54745;SDS011;40640;48.130;11.356;2022-10-31T15:37:23;16.15;;;4.20;;
54745;SDS011;40640;48.130;11.356;2022-10-31T15:41:28;16.73;;;4.63;;
54745;SDS011;40640;48.130;11.356;2022-10-31T15:45:35;20.83;;;5.20;;
54745;SDS011;40640;48.130;11.356;2022-10-31T15:49:39;21.00;;;5.50;;
54745;SDS011;40640;48.130;11.356;2022-10-31T15:53:45;22.42;;;5.63;;
54745;SDS011;40640;48.130;11.356;2022-10-31T15:57:51;17.27;;;5.55;;
54745;SDS011;40640;48.130;11.356;2022-10-31T16:01:59;13.00;;;6.22;;
54745;SDS011;40640;48.130;11.356;2022-10-31T16:06:04;16.38;;;5.50;;
54745;SDS011;40640;48.130;11.356;2022-10-31T16:10:23;17.67;;;6.07;;
54745;SDS011;40640;48.130;11.356;2022-10-31T16:14:27;16.60;;;5.85;;
54745;SDS011;40640;48.130;11.356;2022-10-31T16:18:34;22.63;;;6.75;;
54745;SDS011;40640;48.130;11.356;2022-10-31T16:26:54;19.63;;;7.32;;
54745;SDS011;40640;48.130;11.356;2022-10-31T16:31:12;20.55;;;7.10;;
54745;SDS011;40640;48.130;11.356;2022-10-31T16:35:23;20.13;;;8.40;;
54745;SDS011;40640;48.130;11.356;2022-10-31T16:39:27;19.83;;;7.20;;
54745;SDS011;40640;48.130;11.356;2022-10-31T16:43:31;22.95;;;9.13;;
54745;SDS011;40640;48.130;11.356;2022-10-31T16:47:34;28.88;;;9.85;;
54745;SDS011;40640;48.130;11.356;2022-10-31T16:51:37;26.45;;;9.52;;
54745;SDS011;40640;48.130;11.356;2022-10-31T16:55:41;27.83;;;10.85;;
54745;SDS011;40640;48.130;11.356;2022-10-31T16:59:48;31.42;;;13.40;;
54745;SDS011;40640;48.130;11.356;2022-10-31T17:03:54;42.22;;;15.65;;
54745;SDS011;40640;48.130;11.356;2022-10-31T17:07:57;194.73;;;62.45;;
54745;SDS011;40640;48.130;11.356;2022-10-31T17:12:01;362.38;;;146.63;;
54745;SDS011;40640;48.130;11.356;2022-10-31T17:16:06;136.25;;;53.08;;
54745;SDS011;40640;48.130;11.356;2022-10-31T17:20:11;41.95;;;20.13;;
54745;SDS011;40640;48.130;11.356;2022-10-31T17:24:22;93.07;;;44.15;;
54745;SDS011;40640;48.130;11.356;2022-10-31T17:28:25;77.75;;;34.60;;
54745;SDS011;40640;48.130;11.356;2022-10-31T17:32:29;63.13;;;31.90;;
54745;SDS011;40640;48.130;11.356;2022-10-31T17:36:33;35.60;;;14.85;;
54745;SDS011;40640;48.130;11.356;2022-10-31T17:40:36;48.85;;;25.60;;
54745;SDS011;40640;48.130;11.356;2022-10-31T17:44:39;52.15;;;23.88;;
54745;SDS011;40640;48.130;11.356;2022-10-31T17:48:43;32.63;;;17.00;;
54745;SDS011;40640;48.130;11.356;2022-10-31T17:52:46;31.42;;;13.27;;
54745;SDS011;40640;48.130;11.356;2022-10-31T17:56:51;36.97;;;15.30;;
54745;SDS011;40640;48.130;11.356;2022-10-31T18:00:54;35.00;;;20.50;;
54745;SDS011;40640;48.130;11.356;2022-10-31T18:04:59;41.53;;;20.15;;
54745;SDS011;40640;48.130;11.356;2022-10-31T18:09:03;44.22;;;19.33;;
54745;SDS011;40640;48.130;11.356;2022-10-31T18:13:07;52.08;;;18.67;;
54745;SDS011;40640;48.130;11.356;2022-10-31T18:17:09;66.45;;;30.88;;
54745;SDS011;40640;48.130;11.356;2022-10-31T18:21:13;42.65;;;21.80;;
54745;SDS011;40640;48.130;11.356;2022-10-31T18:25:16;52.95;;;23.65;;
54745;SDS011;40640;48.130;11.356;2022-10-31T18:29:19;41.38;;;17.73;;
54745;SDS011;40640;48.130;11.356;2022-10-31T18:33:22;30.42;;;15.10;;
54745;SDS011;40640;48.130;11.356;2022-10-31T18:37:26;24.58;;;12.82;;
54745;SDS011;40640;48.130;11.356;2022-10-31T18:41:29;27.02;;;10.40;;
54745;SDS011;40640;48.130;11.356;2022-10-31T18:45:32;20.98;;;10.05;;
54745;SDS011;40640;48.130;11.356;2022-10-31T18:49:48;20.83;;;9.52;;
54745;SDS011;40640;48.130;11.356;2022-10-31T18:53:52;23.17;;;9.48;;
54745;SDS011;40640;48.130;11.356;2022-10-31T18:57:56;17.52;;;8.10;;
54745;SDS011;40640;48.130;11.356;2022-10-31T19:01:58;26.20;;;8.25;;
54745;SDS011;40640;48.130;11.356;2022-10-31T19:06:02;17.52;;;8.02;;
54745;SDS011;40640;48.130;11.356;2022-10-31T19:10:06;23.67;;;10.00;;
54745;SDS011;40640;48.130;11.356;2022-10-31T19:14:10;20.58;;;8.27;;
54745;SDS011;40640;48.130;11.356;2022-10-31T19:18:15;24.80;;;7.75;;
54745;SDS011;40640;48.130;11.356;2022-10-31T19:22:17;22.05;;;9.30;;
54745;SDS011;40640;48.130;11.356;2022-10-31T19:26:21;20.30;;;8.20;;
54745;SDS011;40640;48.130;11.356;2022-10-31T19:30:25;18.40;;;8.15;;
54745;SDS011;40640;48.130;11.356;2022-10-31T19:34:27;19.95;;;7.82;;
54745;SDS011;40640;48.130;11.356;2022-10-31T19:38:30;20.50;;;9.73;;
54745;SDS011;40640;48.130;11.356;2022-10-31T19:42:35;30.88;;;11.60;;
54745;SDS011;40640;48.130;11.356;2022-10-31T19:46:37;26.33;;;9.98;;
54745;SDS011;40640;48.130;11.356;2022-10-31T19:51:00;21.10;;;9.95;;
54745;SDS011;40640;48.130;11.356;2022-10-31T19:55:04;42.05;;;11.10;;
54745;SDS011;40640;48.130;11.356;2022-10-31T19:59:09;21.13;;;8.85;;
54745;SDS011;40640;48.130;11.356;2022-10-31T20:03:13;20.73;;;7.63;;
54745;SDS011;40640;48.130;11.356;2022-10-31T20:07:23;23.90;;;7.93;;
54745;SDS011;40640;48.130;11.356;2022-10-31T20:11:26;18.50;;;6.65;;
54745;SDS011;40640;48.130;11.356;2022-10-31T20:15:31;21.10;;;8.13;;
54745;SDS011;40640;48.130;11.356;2022-10-31T20:23:39;15.38;;;6.70;;
54745;SDS011;40640;48.130;11.356;2022-10-31T20:27:42;17.52;;;7.53;;
54745;SDS011;40640;48.130;11.356;2022-10-31T20:31:46;21.55;;;8.65;;
54745;SDS011;40640;48.130;11.356;2022-10-31T20:35:49;22.77;;;8.95;;
54745;SDS011;40640;48.130;11.356;2022-10-31T20:39:52;22.50;;;8.77;;
54745;SDS011;40640;48.130;11.356;2022-10-31T20:43:57;29.92;;;8.23;;
54745;SDS011;40640;48.130;11.356;2022-10-31T20:48:01;19.85;;;8.48;;
54745;SDS011;40640;48.130;11.356;2022-10-31T20:52:04;22.60;;;10.38;;
54745;SDS011;40640;48.130;11.356;2022-10-31T20:56:07;22.25;;;8.27;;
54745;SDS011;40640;48.130;11.356;2022-10-31T21:00:12;22.60;;;7.63;;
54745;SDS011;40640;48.130;11.356;2022-10-31T21:04:16;19.67;;;6.53;;
54745;SDS011;40640;48.130;11.356;2022-10-31T21:08:19;18.35;;;6.10;;
54745;SDS011;40640;48.130;11.356;2022-10-31T21:12:22;17.02;;;6.03;;
54745;SDS011;40640;48.130;11.356;2022-10-31T21:16:26;14.73;;;6.03;;
54745;SDS011;40640;48.130;11.356;2022-10-31T21:20:32;17.38;;;5.78;;
54745;SDS011;40640;48.130;11.356;2022-10-31T21:24:35;18.67;;;7.55;;
54745;SDS011;40640;48.130;11.356;2022-10-31T21:28:38;19.75;;;7.55;;
54745;SDS011;40640;48.130;11.356;2022-10-31T21:32:41;20.05;;;8.25;;
54745;SDS011;40640;48.130;11.356;2022-10-31T21:36:45;21.55;;;7.65;;
54745;SDS011;40640;48.130;11.356;2022-10-31T21:40:48;18.52;;;7.70;;
54745;SDS011;40640;48.130;11.356;2022-10-31T21:44:50;23.60;;;9.45;;
54745;SDS011;40640;48.130;11.356;2022-10-31T21:48:53;22.38;;;7.68;;
54745;SDS011;40640;48.130;11.356;2022-10-31T21:52:58;23.23;;;8.07;;
54745;SDS011;40640;48.130;11.356;2022-10-31T21:57:21;25.80;;;9.77;;
54745;SDS011;40640;48.130;11.356;2022-10-31T22:01:25;41.42;;;10.13;;
54745;SDS011;40640;48.130;11.356;2022-10-31T22:05:28;18.05;;;8.60;;
54745;SDS011;40640;48.130;11.356;2022-10-31T22:09:32;26.40;;;12.07;;
54745;SDS011;40640;48.130;11.356;2022-10-31T22:13:35;61.03;;;30.77;;
54745;SDS011;40640;48.130;11.356;2022-10-31T22:17:39;15.23;;;8.02;;
54745;SDS011;40640;48.130;11.356;2022-10-31T22:21:42;17.13;;;6.22;;
54745;SDS011;40640;48.130;11.356;2022-10-31T22:25:47;19.33;;;8.95;;
54745;SDS011;40640;48.130;11.356;2022-10-31T22:29:50;15.80;;;6.60;;
54745;SDS011;40640;48.130;11.356;2022-10-31T22:33:57;15.35;;;6.47;;
54745;SDS011;40640;48.130;11.356;2022-10-31T22:38:00;15.07;;;6.15;;
54745;SDS011;40640;48.130;11.356;2022-10-31T22:42:04;14.98;;;7.25;;
54745;SDS011;40640;48.130;11.356;2022-10-31T22:46:08;15.63;;;6.07;;
54745;SDS011;40640;48.130;11.356;2022-10-31T22:50:13;20.42;;;6.82;;
54745;SDS011;40640;48.130;11.356;2022-10-31T22:54:16;19.55;;;6.70;;
54745;SDS011;40640;48.130;11.356;2022-10-31T22:58:21;23.98;;;8.60;;
54745;SDS011;40640;48.130;11.356;2022-10-31T23:02:26;27.00;;;9.38;;
54745;SDS011;40640;48.130;11.356;2022-10-31T23:06:29;23.40;;;11.07;;
54745;SDS011;40640;48.130;11.356;2022-10-31T23:10:33;17.10;;;9.45;;
54745;SDS011;40640;48.130;11.356;2022-10-31T23:14:42;22.67;;;8.82;;
54745;SDS011;40640;48.130;11.356;2022-10-31T23:18:45;16.13;;;7.63;;
54745;SDS011;40640;48.130;11.356;2022-10-31T23:22:50;15.52;;;7.15;;
54745;SDS011;40640;48.130;11.356;2022-10-31T23:26:54;17.33;;;6.75;;
54745;SDS011;40640;48.130;11.356;2022-10-31T23:31:09;25.30;;;10.35;;
54745;SDS011;40640;48.130;11.356;2022-10-31T23:35:12;15.32;;;7.25;;
54745;SDS011;40640;48.130;11.356;2022-10-31T23:39:15;16.92;;;6.43;;
54745;SDS011;40640;48.130;11.356;2022-10-31T23:43:24;12.45;;;5.93;;
54745;SDS011;40640;48.130;11.356;2022-10-31T23:47:28;11.85;;;5.82;;
54745;SDS011;40640;48.130;11.356;2022-10-31T23:51:31;11.95;;;4.70;;
54745;SDS011;40640;48.130;11.356;2022-10-31T23:55:34;15.27;;;7.88;;
54745;SDS011;40640;48.130;11.356;2022-10-31T23:59:38;27.35;;;11.82;;
